Weather at RAF West Freugh [CLOSED]

Public forecast

Using degrees Celsius for public forecast. Weather courtesy of forecast.io.

Closest aviation weather report (METAR) to RAF West Freugh

Report is more than 6 hours old.

Closest report is George Best Belfast City Airport, 35.0 nm (64.8 km) WSW. Retrieved 2022/09/17 18:50 UTC (13 days ago):

EGAC 171850Z AUTO 36006KT 9999 OVC049 14/07 Q1024

Closest aviation forecast (TAF) to RAF West Freugh

Forecast is more than 12 hours old.

Closest forecast is George Best Belfast City Airport, 35.0 nm (64.8 km) WSW. Retrieved 2021/12/01 18:06 UTC (10 months ago):

TAF TAF EGAC 010102Z 3018/0103 CNL